< < Back
Terminal Aerodrome Forecast


Current Version              Previous Versions:   1  2  3  4  5  6  7  8  9  

Terminal Aerodrome Forecast

858
FTUS44 KHUN 312320
TAFHSV
TAF
KHSV 312320Z 0100/0124 02005KT P6SM SKC
     FM011500 03013KT P6SM SKC=

Latest METAR

203
SAUS80 KWBC 020200
MTRHSV
METAR KHSV 020153Z 01004KT 10SM SCT250 27/17 A2996 RMK AO2 SLP135
T02720167


USA.gov is the U.S. government's official web portal to all federal, state and local government web resources and services.